sensor_id;sensor_type;location;lat;lon;timestamp;P1;durP1;ratioP1;P2;durP2;ratioP2
8044;SDS011;4065;48.754;9.982;2024-02-16T00:00:16;8.95;;;6.97;;
8044;SDS011;4065;48.754;9.982;2024-02-16T00:03:41;7.63;;;6.82;;
8044;SDS011;4065;48.754;9.982;2024-02-16T00:07:03;6.72;;;6.03;;
8044;SDS011;4065;48.754;9.982;2024-02-16T00:10:27;7.65;;;6.65;;
8044;SDS011;4065;48.754;9.982;2024-02-16T00:13:49;6.22;;;5.63;;
8044;SDS011;4065;48.754;9.982;2024-02-16T00:17:11;5.78;;;5.18;;
8044;SDS011;4065;48.754;9.982;2024-02-16T00:20:33;7.60;;;6.30;;
8044;SDS011;4065;48.754;9.982;2024-02-16T00:23:55;10.05;;;7.25;;
8044;SDS011;4065;48.754;9.982;2024-02-16T00:27:18;8.48;;;6.22;;
8044;SDS011;4065;48.754;9.982;2024-02-16T00:30:40;7.35;;;5.78;;
8044;SDS011;4065;48.754;9.982;2024-02-16T00:34:02;7.50;;;5.68;;
8044;SDS011;4065;48.754;9.982;2024-02-16T00:37:24;5.65;;;5.15;;
8044;SDS011;4065;48.754;9.982;2024-02-16T00:40:46;9.85;;;6.65;;
8044;SDS011;4065;48.754;9.982;2024-02-16T00:44:10;7.18;;;6.47;;
8044;SDS011;4065;48.754;9.982;2024-02-16T00:47:32;6.07;;;5.10;;
8044;SDS011;4065;48.754;9.982;2024-02-16T00:50:54;5.13;;;4.72;;
8044;SDS011;4065;48.754;9.982;2024-02-16T00:54:15;6.10;;;5.32;;
8044;SDS011;4065;48.754;9.982;2024-02-16T00:57:40;5.90;;;5.28;;
8044;SDS011;4065;48.754;9.982;2024-02-16T01:01:04;4.97;;;4.57;;
8044;SDS011;4065;48.754;9.982;2024-02-16T01:04:30;5.38;;;4.88;;
8044;SDS011;4065;48.754;9.982;2024-02-16T01:07:52;7.40;;;5.50;;
8044;SDS011;4065;48.754;9.982;2024-02-16T01:11:14;5.20;;;4.70;;
8044;SDS011;4065;48.754;9.982;2024-02-16T01:14:36;5.55;;;4.47;;
8044;SDS011;4065;48.754;9.982;2024-02-16T01:18:00;7.93;;;4.93;;
8044;SDS011;4065;48.754;9.982;2024-02-16T01:21:22;5.50;;;5.00;;
8044;SDS011;4065;48.754;9.982;2024-02-16T01:24:44;5.25;;;4.75;;
8044;SDS011;4065;48.754;9.982;2024-02-16T01:28:06;5.03;;;4.63;;
8044;SDS011;4065;48.754;9.982;2024-02-16T01:31:28;5.43;;;4.40;;
8044;SDS011;4065;48.754;9.982;2024-02-16T01:34:51;5.30;;;4.38;;
8044;SDS011;4065;48.754;9.982;2024-02-16T01:38:13;6.00;;;5.22;;
8044;SDS011;4065;48.754;9.982;2024-02-16T01:41:38;7.07;;;4.28;;
8044;SDS011;4065;48.754;9.982;2024-02-16T01:45:00;5.60;;;5.10;;
8044;SDS011;4065;48.754;9.982;2024-02-16T01:48:22;6.05;;;5.40;;
8044;SDS011;4065;48.754;9.982;2024-02-16T01:51:45;5.93;;;4.65;;
8044;SDS011;4065;48.754;9.982;2024-02-16T01:55:08;5.72;;;5.13;;
8044;SDS011;4065;48.754;9.982;2024-02-16T01:58:30;5.88;;;4.75;;
8044;SDS011;4065;48.754;9.982;2024-02-16T02:01:52;6.28;;;5.15;;
8044;SDS011;4065;48.754;9.982;2024-02-16T02:05:14;5.10;;;4.70;;
8044;SDS011;4065;48.754;9.982;2024-02-16T02:08:37;6.63;;;4.97;;
8044;SDS011;4065;48.754;9.982;2024-02-16T02:11:59;5.20;;;4.70;;
8044;SDS011;4065;48.754;9.982;2024-02-16T02:15:21;5.43;;;4.95;;
8044;SDS011;4065;48.754;9.982;2024-02-16T02:18:43;6.88;;;5.32;;
8044;SDS011;4065;48.754;9.982;2024-02-16T02:22:09;5.57;;;5.07;;
8044;SDS011;4065;48.754;9.982;2024-02-16T02:25:33;6.65;;;5.30;;
8044;SDS011;4065;48.754;9.982;2024-02-16T02:28:56;5.15;;;4.75;;
8044;SDS011;4065;48.754;9.982;2024-02-16T02:32:18;5.93;;;4.90;;
8044;SDS011;4065;48.754;9.982;2024-02-16T02:35:40;6.00;;;5.47;;
8044;SDS011;4065;48.754;9.982;2024-02-16T02:39:03;5.38;;;4.80;;
8044;SDS011;4065;48.754;9.982;2024-02-16T02:42:26;5.10;;;4.45;;
8044;SDS011;4065;48.754;9.982;2024-02-16T02:45:48;6.10;;;5.13;;
8044;SDS011;4065;48.754;9.982;2024-02-16T02:49:10;5.65;;;4.88;;
8044;SDS011;4065;48.754;9.982;2024-02-16T02:52:32;5.38;;;4.88;;
8044;SDS011;4065;48.754;9.982;2024-02-16T02:55:55;4.80;;;4.40;;
8044;SDS011;4065;48.754;9.982;2024-02-16T02:59:17;5.25;;;4.75;;
8044;SDS011;4065;48.754;9.982;2024-02-16T03:02:39;5.22;;;4.75;;
8044;SDS011;4065;48.754;9.982;2024-02-16T03:06:01;4.90;;;4.50;;
8044;SDS011;4065;48.754;9.982;2024-02-16T03:09:23;6.07;;;5.20;;
8044;SDS011;4065;48.754;9.982;2024-02-16T03:12:47;5.22;;;4.75;;
8044;SDS011;4065;48.754;9.982;2024-02-16T03:16:09;5.32;;;4.82;;
8044;SDS011;4065;48.754;9.982;2024-02-16T03:19:31;5.18;;;4.70;;
8044;SDS011;4065;48.754;9.982;2024-02-16T03:22:53;5.57;;;4.97;;
8044;SDS011;4065;48.754;9.982;2024-02-16T03:26:16;7.68;;;6.38;;
8044;SDS011;4065;48.754;9.982;2024-02-16T03:29:40;8.48;;;6.30;;
8044;SDS011;4065;48.754;9.982;2024-02-16T03:33:01;5.93;;;5.32;;
8044;SDS011;4065;48.754;9.982;2024-02-16T03:36:24;7.25;;;6.07;;
8044;SDS011;4065;48.754;9.982;2024-02-16T03:39:46;6.70;;;5.60;;
8044;SDS011;4065;48.754;9.982;2024-02-16T03:43:08;5.38;;;4.88;;
8044;SDS011;4065;48.754;9.982;2024-02-16T03:46:31;6.70;;;5.72;;
8044;SDS011;4065;48.754;9.982;2024-02-16T03:49:53;5.30;;;4.80;;
8044;SDS011;4065;48.754;9.982;2024-02-16T03:53:15;6.10;;;5.50;;
8044;SDS011;4065;48.754;9.982;2024-02-16T03:56:37;6.38;;;5.75;;
8044;SDS011;4065;48.754;9.982;2024-02-16T03:59:59;5.55;;;5.05;;
8044;SDS011;4065;48.754;9.982;2024-02-16T04:03:22;6.40;;;4.85;;
8044;SDS011;4065;48.754;9.982;2024-02-16T04:06:44;6.22;;;4.72;;
8044;SDS011;4065;48.754;9.982;2024-02-16T04:10:06;7.20;;;5.65;;
8044;SDS011;4065;48.754;9.982;2024-02-16T04:13:30;6.68;;;5.45;;
8044;SDS011;4065;48.754;9.982;2024-02-16T04:16:53;6.88;;;5.53;;
8044;SDS011;4065;48.754;9.982;2024-02-16T04:20:16;5.72;;;5.05;;
8044;SDS011;4065;48.754;9.982;2024-02-16T04:23:38;5.70;;;5.03;;
8044;SDS011;4065;48.754;9.982;2024-02-16T04:27:00;5.72;;;5.00;;
8044;SDS011;4065;48.754;9.982;2024-02-16T04:30:22;5.95;;;4.90;;
8044;SDS011;4065;48.754;9.982;2024-02-16T04:33:56;5.78;;;5.22;;
8044;SDS011;4065;48.754;9.982;2024-02-16T04:37:19;5.78;;;5.25;;
8044;SDS011;4065;48.754;9.982;2024-02-16T04:40:41;4.95;;;4.50;;
8044;SDS011;4065;48.754;9.982;2024-02-16T04:44:03;5.30;;;4.80;;
8044;SDS011;4065;48.754;9.982;2024-02-16T04:47:25;5.38;;;4.88;;
8044;SDS011;4065;48.754;9.982;2024-02-16T04:50:49;6.00;;;5.47;;
8044;SDS011;4065;48.754;9.982;2024-02-16T04:54:16;4.93;;;4.45;;
8044;SDS011;4065;48.754;9.982;2024-02-16T04:57:42;5.85;;;5.35;;
8044;SDS011;4065;48.754;9.982;2024-02-16T05:01:08;5.15;;;4.65;;
8044;SDS011;4065;48.754;9.982;2024-02-16T05:04:38;5.38;;;4.88;;
8044;SDS011;4065;48.754;9.982;2024-02-16T05:08:06;5.45;;;4.55;;
8044;SDS011;4065;48.754;9.982;2024-02-16T05:11:38;5.88;;;4.90;;
8044;SDS011;4065;48.754;9.982;2024-02-16T05:15:03;6.95;;;4.47;;
8044;SDS011;4065;48.754;9.982;2024-02-16T05:18:26;5.38;;;4.88;;
8044;SDS011;4065;48.754;9.982;2024-02-16T05:21:48;5.65;;;4.97;;
8044;SDS011;4065;48.754;9.982;2024-02-16T05:25:10;5.57;;;5.07;;
8044;SDS011;4065;48.754;9.982;2024-02-16T05:28:33;6.47;;;5.78;;
8044;SDS011;4065;48.754;9.982;2024-02-16T05:31:55;7.50;;;6.03;;
8044;SDS011;4065;48.754;9.982;2024-02-16T05:35:17;8.20;;;6.45;;
8044;SDS011;4065;48.754;9.982;2024-02-16T05:38:39;7.60;;;6.03;;
8044;SDS011;4065;48.754;9.982;2024-02-16T05:42:03;10.70;;;8.52;;
8044;SDS011;4065;48.754;9.982;2024-02-16T05:45:27;8.43;;;7.20;;
8044;SDS011;4065;48.754;9.982;2024-02-16T05:48:49;8.50;;;6.65;;
8044;SDS011;4065;48.754;9.982;2024-02-16T05:52:11;7.38;;;6.55;;
8044;SDS011;4065;48.754;9.982;2024-02-16T05:55:39;7.15;;;6.43;;
8044;SDS011;4065;48.754;9.982;2024-02-16T05:59:01;11.30;;;9.55;;
8044;SDS011;4065;48.754;9.982;2024-02-16T06:02:24;13.98;;;10.52;;
8044;SDS011;4065;48.754;9.982;2024-02-16T06:05:47;14.50;;;12.40;;
8044;SDS011;4065;48.754;9.982;2024-02-16T06:09:09;12.27;;;10.75;;
8044;SDS011;4065;48.754;9.982;2024-02-16T06:12:31;9.07;;;7.88;;
8044;SDS011;4065;48.754;9.982;2024-02-16T06:15:53;9.60;;;7.57;;
8044;SDS011;4065;48.754;9.982;2024-02-16T06:19:16;9.57;;;7.72;;
8044;SDS011;4065;48.754;9.982;2024-02-16T06:22:41;7.95;;;6.90;;
8044;SDS011;4065;48.754;9.982;2024-02-16T06:26:03;11.13;;;7.18;;
8044;SDS011;4065;48.754;9.982;2024-02-16T06:29:30;16.50;;;12.93;;
8044;SDS011;4065;48.754;9.982;2024-02-16T06:32:52;18.05;;;12.50;;
8044;SDS011;4065;48.754;9.982;2024-02-16T06:36:16;15.90;;;13.27;;
8044;SDS011;4065;48.754;9.982;2024-02-16T06:39:39;19.80;;;14.88;;
8044;SDS011;4065;48.754;9.982;2024-02-16T06:43:01;20.83;;;15.48;;
8044;SDS011;4065;48.754;9.982;2024-02-16T06:46:25;19.55;;;15.18;;
8044;SDS011;4065;48.754;9.982;2024-02-16T06:49:48;15.48;;;12.43;;
8044;SDS011;4065;48.754;9.982;2024-02-16T06:53:11;17.17;;;13.48;;
8044;SDS011;4065;48.754;9.982;2024-02-16T06:56:33;20.95;;;16.15;;
8044;SDS011;4065;48.754;9.982;2024-02-16T06:59:59;19.63;;;14.18;;
8044;SDS011;4065;48.754;9.982;2024-02-16T07:03:23;23.85;;;17.85;;
8044;SDS011;4065;48.754;9.982;2024-02-16T07:06:45;21.67;;;14.95;;
8044;SDS011;4065;48.754;9.982;2024-02-16T07:10:12;19.17;;;14.25;;
8044;SDS011;4065;48.754;9.982;2024-02-16T07:13:34;14.95;;;12.50;;
8044;SDS011;4065;48.754;9.982;2024-02-16T07:16:56;17.65;;;13.98;;
8044;SDS011;4065;48.754;9.982;2024-02-16T07:20:20;16.17;;;13.88;;
8044;SDS011;4065;48.754;9.982;2024-02-16T07:23:42;15.82;;;13.20;;
8044;SDS011;4065;48.754;9.982;2024-02-16T07:27:13;17.40;;;13.80;;
8044;SDS011;4065;48.754;9.982;2024-02-16T07:30:35;16.80;;;13.88;;
8044;SDS011;4065;48.754;9.982;2024-02-16T07:33:58;16.60;;;12.15;;
8044;SDS011;4065;48.754;9.982;2024-02-16T07:37:23;14.73;;;11.98;;
8044;SDS011;4065;48.754;9.982;2024-02-16T07:40:45;20.65;;;16.00;;
8044;SDS011;4065;48.754;9.982;2024-02-16T07:44:08;19.85;;;14.40;;
8044;SDS011;4065;48.754;9.982;2024-02-16T07:47:31;17.80;;;13.85;;
8044;SDS011;4065;48.754;9.982;2024-02-16T07:50:54;16.33;;;13.40;;
8044;SDS011;4065;48.754;9.982;2024-02-16T07:54:18;16.27;;;13.05;;
8044;SDS011;4065;48.754;9.982;2024-02-16T07:57:40;15.50;;;13.52;;
8044;SDS011;4065;48.754;9.982;2024-02-16T08:01:04;14.13;;;11.65;;
8044;SDS011;4065;48.754;9.982;2024-02-16T08:04:26;12.52;;;10.65;;
8044;SDS011;4065;48.754;9.982;2024-02-16T08:07:49;13.95;;;10.30;;
8044;SDS011;4065;48.754;9.982;2024-02-16T08:11:11;13.07;;;10.40;;
8044;SDS011;4065;48.754;9.982;2024-02-16T08:14:33;14.15;;;9.60;;
8044;SDS011;4065;48.754;9.982;2024-02-16T08:17:58;11.27;;;9.68;;
8044;SDS011;4065;48.754;9.982;2024-02-16T08:21:20;10.45;;;8.73;;
8044;SDS011;4065;48.754;9.982;2024-02-16T08:24:42;9.88;;;8.88;;
8044;SDS011;4065;48.754;9.982;2024-02-16T08:28:06;12.50;;;8.73;;
8044;SDS011;4065;48.754;9.982;2024-02-16T08:31:31;10.60;;;8.18;;
8044;SDS011;4065;48.754;9.982;2024-02-16T08:34:57;11.52;;;8.25;;
8044;SDS011;4065;48.754;9.982;2024-02-16T08:38:20;9.65;;;8.45;;
8044;SDS011;4065;48.754;9.982;2024-02-16T08:41:45;9.27;;;8.05;;
8044;SDS011;4065;48.754;9.982;2024-02-16T08:45:08;8.73;;;7.85;;
8044;SDS011;4065;48.754;9.982;2024-02-16T08:48:32;8.32;;;7.00;;
8044;SDS011;4065;48.754;9.982;2024-02-16T08:51:57;8.60;;;7.40;;
8044;SDS011;4065;48.754;9.982;2024-02-16T08:55:24;8.73;;;7.60;;
8044;SDS011;4065;48.754;9.982;2024-02-16T09:02:18;7.75;;;6.95;;
8044;SDS011;4065;48.754;9.982;2024-02-16T09:05:41;8.05;;;6.78;;
8044;SDS011;4065;48.754;9.982;2024-02-16T09:09:05;7.18;;;6.47;;
8044;SDS011;4065;48.754;9.982;2024-02-16T09:12:31;4.05;;;3.65;;
8044;SDS011;4065;48.754;9.982;2024-02-16T09:15:53;2.60;;;2.40;;
8044;SDS011;4065;48.754;9.982;2024-02-16T09:19:15;3.35;;;2.50;;
8044;SDS011;4065;48.754;9.982;2024-02-16T09:22:37;4.57;;;2.55;;
8044;SDS011;4065;48.754;9.982;2024-02-16T09:26:12;3.10;;;2.42;;
8044;SDS011;4065;48.754;9.982;2024-02-16T09:29:59;2.97;;;2.45;;
8044;SDS011;4065;48.754;9.982;2024-02-16T09:33:32;3.70;;;2.40;;
8044;SDS011;4065;48.754;9.982;2024-02-16T09:37:04;3.25;;;2.80;;
8044;SDS011;4065;48.754;9.982;2024-02-16T09:40:39;3.35;;;2.55;;
8044;SDS011;4065;48.754;9.982;2024-02-16T09:44:04;3.72;;;2.20;;
8044;SDS011;4065;48.754;9.982;2024-02-16T09:47:31;2.90;;;2.58;;
8044;SDS011;4065;48.754;9.982;2024-02-16T09:50:55;2.72;;;2.03;;
8044;SDS011;4065;48.754;9.982;2024-02-16T09:54:20;2.30;;;2.10;;
8044;SDS011;4065;48.754;9.982;2024-02-16T09:57:42;3.13;;;2.67;;
8044;SDS011;4065;48.754;9.982;2024-02-16T10:01:17;2.83;;;2.33;;
8044;SDS011;4065;48.754;9.982;2024-02-16T10:04:39;2.85;;;2.10;;
8044;SDS011;4065;48.754;9.982;2024-02-16T10:08:18;2.63;;;2.22;;
8044;SDS011;4065;48.754;9.982;2024-02-16T10:12:10;2.63;;;2.40;;
8044;SDS011;4065;48.754;9.982;2024-02-16T10:15:53;3.45;;;2.55;;
8044;SDS011;4065;48.754;9.982;2024-02-16T10:20:01;4.95;;;4.43;;
8044;SDS011;4065;48.754;9.982;2024-02-16T10:23:27;4.97;;;3.78;;
8044;SDS011;4065;48.754;9.982;2024-02-16T10:26:49;5.72;;;5.22;;
8044;SDS011;4065;48.754;9.982;2024-02-16T10:30:11;24.05;;;22.35;;
8044;SDS011;4065;48.754;9.982;2024-02-16T10:33:33;38.28;;;35.55;;
8044;SDS011;4065;48.754;9.982;2024-02-16T10:36:57;26.05;;;24.15;;
8044;SDS011;4065;48.754;9.982;2024-02-16T10:40:23;18.42;;;17.23;;
8044;SDS011;4065;48.754;9.982;2024-02-16T10:43:55;10.60;;;9.77;;
8044;SDS011;4065;48.754;9.982;2024-02-16T10:47:20;21.15;;;19.70;;
8044;SDS011;4065;48.754;9.982;2024-02-16T10:50:42;5.57;;;5.13;;
8044;SDS011;4065;48.754;9.982;2024-02-16T10:54:06;4.35;;;3.25;;
8044;SDS011;4065;48.754;9.982;2024-02-16T10:57:29;4.20;;;2.97;;
8044;SDS011;4065;48.754;9.982;2024-02-16T11:00:52;3.25;;;2.75;;
8044;SDS011;4065;48.754;9.982;2024-02-16T11:04:15;3.50;;;3.05;;
8044;SDS011;4065;48.754;9.982;2024-02-16T11:07:41;4.63;;;2.90;;
8044;SDS011;4065;48.754;9.982;2024-02-16T11:11:04;4.15;;;2.53;;
8044;SDS011;4065;48.754;9.982;2024-02-16T11:14:35;4.40;;;2.67;;
8044;SDS011;4065;48.754;9.982;2024-02-16T11:17:58;3.05;;;2.20;;
8044;SDS011;4065;48.754;9.982;2024-02-16T11:21:25;3.65;;;2.47;;
8044;SDS011;4065;48.754;9.982;2024-02-16T11:24:47;2.58;;;2.33;;
8044;SDS011;4065;48.754;9.982;2024-02-16T11:28:11;3.17;;;2.47;;
8044;SDS011;4065;48.754;9.982;2024-02-16T11:31:34;2.85;;;2.35;;
8044;SDS011;4065;48.754;9.982;2024-02-16T11:35:03;3.40;;;2.20;;
8044;SDS011;4065;48.754;9.982;2024-02-16T11:38:32;5.32;;;2.28;;
8044;SDS011;4065;48.754;9.982;2024-02-16T11:42:00;5.65;;;2.63;;
8044;SDS011;4065;48.754;9.982;2024-02-16T11:45:27;4.03;;;2.42;;
8044;SDS011;4065;48.754;9.982;2024-02-16T11:48:49;3.80;;;2.70;;
8044;SDS011;4065;48.754;9.982;2024-02-16T11:52:11;2.85;;;2.17;;
8044;SDS011;4065;48.754;9.982;2024-02-16T11:55:33;2.90;;;2.20;;
8044;SDS011;4065;48.754;9.982;2024-02-16T11:58:55;4.72;;;3.05;;
8044;SDS011;4065;48.754;9.982;2024-02-16T12:02:23;3.50;;;2.30;;
8044;SDS011;4065;48.754;9.982;2024-02-16T12:05:51;5.32;;;3.00;;
8044;SDS011;4065;48.754;9.982;2024-02-16T12:09:14;5.80;;;3.30;;
8044;SDS011;4065;48.754;9.982;2024-02-16T12:12:37;4.75;;;2.92;;
8044;SDS011;4065;48.754;9.982;2024-02-16T12:16:01;4.25;;;2.67;;
8044;SDS011;4065;48.754;9.982;2024-02-16T12:19:28;3.17;;;2.60;;
8044;SDS011;4065;48.754;9.982;2024-02-16T12:22:50;3.38;;;2.97;;
8044;SDS011;4065;48.754;9.982;2024-02-16T12:26:13;4.53;;;3.40;;
8044;SDS011;4065;48.754;9.982;2024-02-16T12:29:37;5.78;;;3.72;;
8044;SDS011;4065;48.754;9.982;2024-02-16T12:33:38;4.20;;;3.03;;
8044;SDS011;4065;48.754;9.982;2024-02-16T12:37:38;7.13;;;3.00;;
8044;SDS011;4065;48.754;9.982;2024-02-16T12:41:00;3.47;;;3.00;;
8044;SDS011;4065;48.754;9.982;2024-02-16T12:44:22;3.92;;;3.38;;
8044;SDS011;4065;48.754;9.982;2024-02-16T12:47:44;6.00;;;3.28;;
8044;SDS011;4065;48.754;9.982;2024-02-16T12:51:11;3.38;;;2.90;;
8044;SDS011;4065;48.754;9.982;2024-02-16T12:54:34;7.32;;;3.30;;
8044;SDS011;4065;48.754;9.982;2024-02-16T12:57:56;7.22;;;3.30;;
8044;SDS011;4065;48.754;9.982;2024-02-16T13:01:39;4.32;;;2.80;;
8044;SDS011;4065;48.754;9.982;2024-02-16T13:05:04;4.60;;;3.15;;
8044;SDS011;4065;48.754;9.982;2024-02-16T13:08:26;3.58;;;2.97;;
8044;SDS011;4065;48.754;9.982;2024-02-16T13:11:50;5.50;;;2.92;;
8044;SDS011;4065;48.754;9.982;2024-02-16T13:15:15;7.65;;;3.28;;
8044;SDS011;4065;48.754;9.982;2024-02-16T13:18:37;4.88;;;3.25;;
8044;SDS011;4065;48.754;9.982;2024-02-16T13:22:02;5.57;;;3.15;;
8044;SDS011;4065;48.754;9.982;2024-02-16T13:25:29;5.88;;;2.92;;
8044;SDS011;4065;48.754;9.982;2024-02-16T13:28:54;4.93;;;3.40;;
8044;SDS011;4065;48.754;9.982;2024-02-16T13:32:26;7.10;;;3.58;;
8044;SDS011;4065;48.754;9.982;2024-02-16T13:36:31;4.43;;;3.20;;
8044;SDS011;4065;48.754;9.982;2024-02-16T13:40:03;5.15;;;3.35;;
8044;SDS011;4065;48.754;9.982;2024-02-16T13:43:27;6.05;;;3.22;;
8044;SDS011;4065;48.754;9.982;2024-02-16T13:46:51;6.03;;;3.95;;
8044;SDS011;4065;48.754;9.982;2024-02-16T13:50:13;12.63;;;8.40;;
8044;SDS011;4065;48.754;9.982;2024-02-16T13:53:35;5.07;;;3.50;;
8044;SDS011;4065;48.754;9.982;2024-02-16T13:56:57;4.65;;;3.03;;
8044;SDS011;4065;48.754;9.982;2024-02-16T14:00:26;4.63;;;2.90;;
8044;SDS011;4065;48.754;9.982;2024-02-16T14:03:51;7.53;;;2.95;;
8044;SDS011;4065;48.754;9.982;2024-02-16T14:07:13;8.48;;;3.55;;
8044;SDS011;4065;48.754;9.982;2024-02-16T14:10:35;5.57;;;2.97;;
8044;SDS011;4065;48.754;9.982;2024-02-16T14:13:57;6.22;;;3.45;;
8044;SDS011;4065;48.754;9.982;2024-02-16T14:17:19;5.07;;;3.22;;
8044;SDS011;4065;48.754;9.982;2024-02-16T14:20:42;5.28;;;3.25;;
8044;SDS011;4065;48.754;9.982;2024-02-16T14:24:04;5.28;;;3.03;;
8044;SDS011;4065;48.754;9.982;2024-02-16T14:27:27;6.05;;;3.40;;
8044;SDS011;4065;48.754;9.982;2024-02-16T14:30:50;6.78;;;3.55;;
8044;SDS011;4065;48.754;9.982;2024-02-16T14:34:12;8.13;;;3.22;;
8044;SDS011;4065;48.754;9.982;2024-02-16T14:37:40;6.32;;;3.38;;
8044;SDS011;4065;48.754;9.982;2024-02-16T14:41:02;8.52;;;6.43;;
8044;SDS011;4065;48.754;9.982;2024-02-16T14:44:26;8.02;;;3.80;;
8044;SDS011;4065;48.754;9.982;2024-02-16T14:47:50;9.95;;;5.65;;
8044;SDS011;4065;48.754;9.982;2024-02-16T14:51:12;6.57;;;3.60;;
8044;SDS011;4065;48.754;9.982;2024-02-16T14:54:35;7.63;;;4.68;;
8044;SDS011;4065;48.754;9.982;2024-02-16T14:57:57;8.05;;;4.03;;
8044;SDS011;4065;48.754;9.982;2024-02-16T15:01:19;6.72;;;3.78;;
8044;SDS011;4065;48.754;9.982;2024-02-16T15:04:41;13.43;;;12.20;;
8044;SDS011;4065;48.754;9.982;2024-02-16T15:08:05;14.93;;;12.25;;
8044;SDS011;4065;48.754;9.982;2024-02-16T15:11:29;12.98;;;6.22;;
8044;SDS011;4065;48.754;9.982;2024-02-16T15:14:51;8.32;;;4.85;;
8044;SDS011;4065;48.754;9.982;2024-02-16T15:18:13;17.55;;;14.15;;
8044;SDS011;4065;48.754;9.982;2024-02-16T15:21:35;6.35;;;4.50;;
8044;SDS011;4065;48.754;9.982;2024-02-16T15:24:58;10.73;;;4.80;;
8044;SDS011;4065;48.754;9.982;2024-02-16T15:28:24;6.88;;;4.07;;
8044;SDS011;4065;48.754;9.982;2024-02-16T15:31:48;4.93;;;3.78;;
8044;SDS011;4065;48.754;9.982;2024-02-16T15:35:10;6.32;;;3.65;;
8044;SDS011;4065;48.754;9.982;2024-02-16T15:38:32;4.68;;;3.63;;
8044;SDS011;4065;48.754;9.982;2024-02-16T15:41:54;5.72;;;3.65;;
8044;SDS011;4065;48.754;9.982;2024-02-16T15:45:18;6.10;;;3.53;;
8044;SDS011;4065;48.754;9.982;2024-02-16T15:48:40;6.57;;;3.65;;
8044;SDS011;4065;48.754;9.982;2024-02-16T15:52:02;7.88;;;4.22;;
8044;SDS011;4065;48.754;9.982;2024-02-16T15:55:24;8.90;;;3.67;;
8044;SDS011;4065;48.754;9.982;2024-02-16T15:58:46;5.57;;;4.03;;
8044;SDS011;4065;48.754;9.982;2024-02-16T16:02:09;46.25;;;41.33;;
8044;SDS011;4065;48.754;9.982;2024-02-16T16:05:31;6.20;;;3.55;;
8044;SDS011;4065;48.754;9.982;2024-02-16T16:08:55;6.90;;;3.53;;
8044;SDS011;4065;48.754;9.982;2024-02-16T16:12:17;6.55;;;4.40;;
8044;SDS011;4065;48.754;9.982;2024-02-16T16:15:41;8.98;;;4.85;;
8044;SDS011;4065;48.754;9.982;2024-02-16T16:19:05;9.70;;;6.25;;
8044;SDS011;4065;48.754;9.982;2024-02-16T16:22:28;7.00;;;4.15;;
8044;SDS011;4065;48.754;9.982;2024-02-16T16:25:50;5.57;;;3.95;;
8044;SDS011;4065;48.754;9.982;2024-02-16T16:29:12;6.88;;;4.28;;
8044;SDS011;4065;48.754;9.982;2024-02-16T16:32:35;5.93;;;4.55;;
8044;SDS011;4065;48.754;9.982;2024-02-16T16:35:59;7.45;;;4.63;;
8044;SDS011;4065;48.754;9.982;2024-02-16T16:39:23;11.18;;;5.90;;
8044;SDS011;4065;48.754;9.982;2024-02-16T16:42:45;7.88;;;6.57;;
8044;SDS011;4065;48.754;9.982;2024-02-16T16:46:07;8.15;;;5.28;;
8044;SDS011;4065;48.754;9.982;2024-02-16T16:49:30;8.38;;;4.97;;
8044;SDS011;4065;48.754;9.982;2024-02-16T16:52:53;6.00;;;4.25;;
8044;SDS011;4065;48.754;9.982;2024-02-16T16:56:15;7.82;;;4.25;;
8044;SDS011;4065;48.754;9.982;2024-02-16T16:59:37;7.10;;;5.95;;
8044;SDS011;4065;48.754;9.982;2024-02-16T17:02:59;11.18;;;9.32;;
8044;SDS011;4065;48.754;9.982;2024-02-16T17:06:21;6.82;;;4.35;;
8044;SDS011;4065;48.754;9.982;2024-02-16T17:09:45;9.02;;;5.88;;
8044;SDS011;4065;48.754;9.982;2024-02-16T17:13:07;11.65;;;6.20;;
8044;SDS011;4065;48.754;9.982;2024-02-16T17:16:28;16.85;;;10.70;;
8044;SDS011;4065;48.754;9.982;2024-02-16T17:19:50;8.30;;;5.70;;
8044;SDS011;4065;48.754;9.982;2024-02-16T17:23:12;8.27;;;5.32;;
8044;SDS011;4065;48.754;9.982;2024-02-16T17:26:38;8.05;;;4.55;;
8044;SDS011;4065;48.754;9.982;2024-02-16T17:30:01;8.35;;;4.72;;
8044;SDS011;4065;48.754;9.982;2024-02-16T17:33:23;6.97;;;5.50;;
8044;SDS011;4065;48.754;9.982;2024-02-16T17:36:45;7.28;;;4.70;;
8044;SDS011;4065;48.754;9.982;2024-02-16T17:40:07;11.30;;;6.70;;
8044;SDS011;4065;48.754;9.982;2024-02-16T17:43:31;9.35;;;6.20;;
8044;SDS011;4065;48.754;9.982;2024-02-16T17:46:54;21.98;;;10.07;;
8044;SDS011;4065;48.754;9.982;2024-02-16T17:50:16;8.82;;;6.63;;
8044;SDS011;4065;48.754;9.982;2024-02-16T17:53:38;8.38;;;5.22;;
8044;SDS011;4065;48.754;9.982;2024-02-16T17:57:00;7.78;;;4.90;;
8044;SDS011;4065;48.754;9.982;2024-02-16T18:00:23;12.57;;;6.22;;
8044;SDS011;4065;48.754;9.982;2024-02-16T18:03:45;13.20;;;7.50;;
8044;SDS011;4065;48.754;9.982;2024-02-16T18:07:07;9.85;;;6.93;;
8044;SDS011;4065;48.754;9.982;2024-02-16T18:10:33;8.68;;;5.80;;
8044;SDS011;4065;48.754;9.982;2024-02-16T18:13:55;8.10;;;5.45;;
8044;SDS011;4065;48.754;9.982;2024-02-16T18:17:19;7.22;;;5.30;;
8044;SDS011;4065;48.754;9.982;2024-02-16T18:20:41;10.02;;;5.72;;
8044;SDS011;4065;48.754;9.982;2024-02-16T18:24:03;9.23;;;5.82;;
8044;SDS011;4065;48.754;9.982;2024-02-16T18:27:25;11.27;;;6.40;;
8044;SDS011;4065;48.754;9.982;2024-02-16T18:30:47;10.20;;;6.28;;
8044;SDS011;4065;48.754;9.982;2024-02-16T18:34:10;11.00;;;4.82;;
8044;SDS011;4065;48.754;9.982;2024-02-16T18:37:35;11.32;;;5.40;;
8044;SDS011;4065;48.754;9.982;2024-02-16T18:40:57;6.68;;;4.05;;
8044;SDS011;4065;48.754;9.982;2024-02-16T18:44:19;7.43;;;4.57;;
8044;SDS011;4065;48.754;9.982;2024-02-16T18:47:43;5.63;;;4.35;;
8044;SDS011;4065;48.754;9.982;2024-02-16T18:51:07;6.78;;;4.20;;
8044;SDS011;4065;48.754;9.982;2024-02-16T18:54:29;6.70;;;5.32;;
8044;SDS011;4065;48.754;9.982;2024-02-16T18:57:50;9.70;;;7.75;;
8044;SDS011;4065;48.754;9.982;2024-02-16T19:01:13;5.97;;;4.45;;
8044;SDS011;4065;48.754;9.982;2024-02-16T19:04:35;10.50;;;6.18;;
8044;SDS011;4065;48.754;9.982;2024-02-16T19:07:59;8.38;;;6.00;;
8044;SDS011;4065;48.754;9.982;2024-02-16T19:11:21;6.72;;;4.50;;
8044;SDS011;4065;48.754;9.982;2024-02-16T19:14:43;7.00;;;4.07;;
8044;SDS011;4065;48.754;9.982;2024-02-16T19:18:05;5.55;;;4.20;;
8044;SDS011;4065;48.754;9.982;2024-02-16T19:21:28;7.80;;;4.30;;
8044;SDS011;4065;48.754;9.982;2024-02-16T19:24:51;7.88;;;3.95;;
8044;SDS011;4065;48.754;9.982;2024-02-16T19:28:13;6.22;;;4.13;;
8044;SDS011;4065;48.754;9.982;2024-02-16T19:31:35;7.28;;;4.22;;
8044;SDS011;4065;48.754;9.982;2024-02-16T19:34:57;7.63;;;4.15;;
8044;SDS011;4065;48.754;9.982;2024-02-16T19:38:19;5.75;;;3.97;;
8044;SDS011;4065;48.754;9.982;2024-02-16T19:45:22;11.52;;;7.28;;
8044;SDS011;4065;48.754;9.982;2024-02-16T19:48:44;6.00;;;5.18;;
8044;SDS011;4065;48.754;9.982;2024-02-16T19:52:07;8.73;;;5.35;;
8044;SDS011;4065;48.754;9.982;2024-02-16T19:55:29;7.22;;;4.28;;
8044;SDS011;4065;48.754;9.982;2024-02-16T19:58:52;6.35;;;4.65;;
8044;SDS011;4065;48.754;9.982;2024-02-16T20:02:14;7.13;;;4.60;;
8044;SDS011;4065;48.754;9.982;2024-02-16T20:05:36;8.15;;;4.70;;
8044;SDS011;4065;48.754;9.982;2024-02-16T20:08:58;6.55;;;5.10;;
8044;SDS011;4065;48.754;9.982;2024-02-16T20:12:20;8.55;;;6.55;;
8044;SDS011;4065;48.754;9.982;2024-02-16T20:15:43;19.63;;;17.73;;
8044;SDS011;4065;48.754;9.982;2024-02-16T20:19:05;9.10;;;6.60;;
8044;SDS011;4065;48.754;9.982;2024-02-16T20:22:27;9.95;;;6.57;;
8044;SDS011;4065;48.754;9.982;2024-02-16T20:25:49;10.05;;;5.80;;
8044;SDS011;4065;48.754;9.982;2024-02-16T20:29:11;7.97;;;5.60;;
8044;SDS011;4065;48.754;9.982;2024-02-16T20:32:34;13.10;;;9.52;;
8044;SDS011;4065;48.754;9.982;2024-02-16T20:35:58;20.85;;;14.05;;
8044;SDS011;4065;48.754;9.982;2024-02-16T20:39:20;9.15;;;8.25;;
8044;SDS011;4065;48.754;9.982;2024-02-16T20:42:42;26.17;;;18.10;;
8044;SDS011;4065;48.754;9.982;2024-02-16T20:46:06;16.60;;;11.15;;
8044;SDS011;4065;48.754;9.982;2024-02-16T20:49:29;11.73;;;8.40;;
8044;SDS011;4065;48.754;9.982;2024-02-16T20:52:51;21.20;;;14.40;;
8044;SDS011;4065;48.754;9.982;2024-02-16T20:56:13;30.83;;;23.25;;
8044;SDS011;4065;48.754;9.982;2024-02-16T20:59:36;10.27;;;7.78;;
8044;SDS011;4065;48.754;9.982;2024-02-16T21:02:58;11.93;;;8.15;;
8044;SDS011;4065;48.754;9.982;2024-02-16T21:06:21;11.82;;;8.32;;